sensor_id;sensor_type;location;lat;lon;timestamp;P1;durP1;ratioP1;P2;durP2;ratioP2
7737;SDS011;29398;45.328;5.558;2023-12-22T00:00:20;32.83;;;25.23;;
7737;SDS011;29398;45.328;5.558;2023-12-22T00:01:22;33.03;;;26.15;;
7737;SDS011;29398;45.328;5.558;2023-12-22T00:02:23;32.60;;;24.77;;
7737;SDS011;29398;45.328;5.558;2023-12-22T00:03:26;36.28;;;24.27;;
7737;SDS011;29398;45.328;5.558;2023-12-22T00:04:27;28.13;;;23.55;;
7737;SDS011;29398;45.328;5.558;2023-12-22T00:05:29;29.48;;;24.48;;
7737;SDS011;29398;45.328;5.558;2023-12-22T00:06:30;29.05;;;24.42;;
7737;SDS011;29398;45.328;5.558;2023-12-22T00:07:32;28.98;;;25.05;;
7737;SDS011;29398;45.328;5.558;2023-12-22T00:08:34;29.55;;;24.70;;
7737;SDS011;29398;45.328;5.558;2023-12-22T00:09:36;32.45;;;25.80;;
7737;SDS011;29398;45.328;5.558;2023-12-22T00:10:38;36.80;;;25.67;;
7737;SDS011;29398;45.328;5.558;2023-12-22T00:11:39;34.60;;;26.58;;
7737;SDS011;29398;45.328;5.558;2023-12-22T00:12:41;32.30;;;26.30;;
7737;SDS011;29398;45.328;5.558;2023-12-22T00:13:42;44.63;;;29.92;;
7737;SDS011;29398;45.328;5.558;2023-12-22T00:14:44;59.28;;;32.85;;
7737;SDS011;29398;45.328;5.558;2023-12-22T00:15:45;44.88;;;30.35;;
7737;SDS011;29398;45.328;5.558;2023-12-22T00:16:47;42.10;;;30.05;;
7737;SDS011;29398;45.328;5.558;2023-12-22T00:17:49;38.30;;;29.05;;
7737;SDS011;29398;45.328;5.558;2023-12-22T00:18:51;37.15;;;28.85;;
7737;SDS011;29398;45.328;5.558;2023-12-22T00:19:53;45.00;;;32.53;;
7737;SDS011;29398;45.328;5.558;2023-12-22T00:20:56;48.88;;;32.53;;
7737;SDS011;29398;45.328;5.558;2023-12-22T00:21:57;45.03;;;30.88;;
7737;SDS011;29398;45.328;5.558;2023-12-22T00:23:01;45.38;;;32.40;;
7737;SDS011;29398;45.328;5.558;2023-12-22T00:24:02;43.08;;;31.65;;
7737;SDS011;29398;45.328;5.558;2023-12-22T00:25:05;52.92;;;33.00;;
7737;SDS011;29398;45.328;5.558;2023-12-22T00:26:08;45.13;;;30.55;;
7737;SDS011;29398;45.328;5.558;2023-12-22T00:27:10;40.60;;;30.77;;
7737;SDS011;29398;45.328;5.558;2023-12-22T00:28:11;37.78;;;30.17;;
7737;SDS011;29398;45.328;5.558;2023-12-22T00:29:13;50.90;;;30.35;;
7737;SDS011;29398;45.328;5.558;2023-12-22T00:30:14;40.47;;;29.02;;
7737;SDS011;29398;45.328;5.558;2023-12-22T00:31:16;36.72;;;27.70;;
7737;SDS011;29398;45.328;5.558;2023-12-22T00:32:18;33.35;;;26.30;;
7737;SDS011;29398;45.328;5.558;2023-12-22T00:33:20;41.08;;;26.80;;
7737;SDS011;29398;45.328;5.558;2023-12-22T00:34:21;52.20;;;31.35;;
7737;SDS011;29398;45.328;5.558;2023-12-22T00:35:24;45.97;;;29.42;;
7737;SDS011;29398;45.328;5.558;2023-12-22T00:36:25;39.80;;;28.25;;
7737;SDS011;29398;45.328;5.558;2023-12-22T00:37:26;52.72;;;29.52;;
7737;SDS011;29398;45.328;5.558;2023-12-22T00:38:29;44.63;;;28.98;;
7737;SDS011;29398;45.328;5.558;2023-12-22T00:39:31;42.60;;;27.27;;
7737;SDS011;29398;45.328;5.558;2023-12-22T00:40:33;49.70;;;29.95;;
7737;SDS011;29398;45.328;5.558;2023-12-22T00:41:34;37.10;;;25.20;;
7737;SDS011;29398;45.328;5.558;2023-12-22T00:42:36;45.03;;;27.80;;
7737;SDS011;29398;45.328;5.558;2023-12-22T00:43:38;47.72;;;27.95;;
7737;SDS011;29398;45.328;5.558;2023-12-22T00:44:40;54.00;;;28.58;;
7737;SDS011;29398;45.328;5.558;2023-12-22T00:45:41;44.53;;;28.15;;
7737;SDS011;29398;45.328;5.558;2023-12-22T00:46:43;40.30;;;26.33;;
7737;SDS011;29398;45.328;5.558;2023-12-22T00:47:44;47.08;;;27.00;;
7737;SDS011;29398;45.328;5.558;2023-12-22T00:48:45;43.95;;;27.70;;
7737;SDS011;29398;45.328;5.558;2023-12-22T00:49:47;48.05;;;29.17;;
7737;SDS011;29398;45.328;5.558;2023-12-22T00:50:48;44.88;;;27.60;;
7737;SDS011;29398;45.328;5.558;2023-12-22T00:51:50;48.33;;;29.52;;
7737;SDS011;29398;45.328;5.558;2023-12-22T00:52:51;55.08;;;30.33;;
7737;SDS011;29398;45.328;5.558;2023-12-22T00:53:54;43.25;;;28.27;;
7737;SDS011;29398;45.328;5.558;2023-12-22T00:54:55;42.90;;;26.98;;
7737;SDS011;29398;45.328;5.558;2023-12-22T00:55:59;32.25;;;24.75;;
7737;SDS011;29398;45.328;5.558;2023-12-22T00:57:00;30.20;;;23.80;;
7737;SDS011;29398;45.328;5.558;2023-12-22T00:58:02;35.58;;;24.98;;
7737;SDS011;29398;45.328;5.558;2023-12-22T00:59:03;33.58;;;23.50;;
7737;SDS011;29398;45.328;5.558;2023-12-22T01:00:06;29.52;;;23.33;;
7737;SDS011;29398;45.328;5.558;2023-12-22T01:01:10;33.75;;;23.48;;
7737;SDS011;29398;45.328;5.558;2023-12-22T01:02:12;33.88;;;24.17;;
7737;SDS011;29398;45.328;5.558;2023-12-22T01:03:14;43.22;;;28.73;;
7737;SDS011;29398;45.328;5.558;2023-12-22T01:04:16;44.13;;;28.48;;
7737;SDS011;29398;45.328;5.558;2023-12-22T01:05:17;41.30;;;28.95;;
7737;SDS011;29398;45.328;5.558;2023-12-22T01:06:18;46.03;;;31.15;;
7737;SDS011;29398;45.328;5.558;2023-12-22T01:07:20;44.13;;;28.67;;
7737;SDS011;29398;45.328;5.558;2023-12-22T01:08:21;48.35;;;30.35;;
7737;SDS011;29398;45.328;5.558;2023-12-22T01:09:24;52.53;;;33.05;;
7737;SDS011;29398;45.328;5.558;2023-12-22T01:10:26;48.17;;;30.63;;
7737;SDS011;29398;45.328;5.558;2023-12-22T01:11:27;44.00;;;30.88;;
7737;SDS011;29398;45.328;5.558;2023-12-22T01:12:29;37.10;;;29.08;;
7737;SDS011;29398;45.328;5.558;2023-12-22T01:13:30;37.67;;;28.00;;
7737;SDS011;29398;45.328;5.558;2023-12-22T01:14:32;53.20;;;32.33;;
7737;SDS011;29398;45.328;5.558;2023-12-22T01:15:34;43.80;;;29.67;;
7737;SDS011;29398;45.328;5.558;2023-12-22T01:16:36;45.30;;;31.48;;
7737;SDS011;29398;45.328;5.558;2023-12-22T01:17:37;47.42;;;31.08;;
7737;SDS011;29398;45.328;5.558;2023-12-22T01:18:39;40.97;;;28.85;;
7737;SDS011;29398;45.328;5.558;2023-12-22T01:19:42;45.50;;;29.33;;
7737;SDS011;29398;45.328;5.558;2023-12-22T01:20:45;40.85;;;27.77;;
7737;SDS011;29398;45.328;5.558;2023-12-22T01:21:46;44.35;;;28.83;;
7737;SDS011;29398;45.328;5.558;2023-12-22T01:22:49;43.20;;;27.52;;
7737;SDS011;29398;45.328;5.558;2023-12-22T01:23:50;43.20;;;28.88;;
7737;SDS011;29398;45.328;5.558;2023-12-22T01:24:54;42.65;;;28.27;;
7737;SDS011;29398;45.328;5.558;2023-12-22T01:25:55;40.63;;;27.55;;
7737;SDS011;29398;45.328;5.558;2023-12-22T01:26:57;28.45;;;23.48;;
7737;SDS011;29398;45.328;5.558;2023-12-22T01:27:59;30.77;;;23.17;;
7737;SDS011;29398;45.328;5.558;2023-12-22T01:29:01;30.33;;;24.05;;
7737;SDS011;29398;45.328;5.558;2023-12-22T01:30:02;32.42;;;22.67;;
7737;SDS011;29398;45.328;5.558;2023-12-22T01:31:04;29.77;;;21.77;;
7737;SDS011;29398;45.328;5.558;2023-12-22T01:32:06;30.60;;;23.67;;
7737;SDS011;29398;45.328;5.558;2023-12-22T01:33:07;35.45;;;26.63;;
7737;SDS011;29398;45.328;5.558;2023-12-22T01:34:09;38.22;;;29.23;;
7737;SDS011;29398;45.328;5.558;2023-12-22T01:35:10;38.90;;;28.27;;
7737;SDS011;29398;45.328;5.558;2023-12-22T01:36:12;39.55;;;26.45;;
7737;SDS011;29398;45.328;5.558;2023-12-22T01:37:13;44.00;;;26.75;;
7737;SDS011;29398;45.328;5.558;2023-12-22T01:38:15;32.97;;;25.42;;
7737;SDS011;29398;45.328;5.558;2023-12-22T01:39:16;40.63;;;27.38;;
7737;SDS011;29398;45.328;5.558;2023-12-22T01:40:20;28.40;;;22.35;;
7737;SDS011;29398;45.328;5.558;2023-12-22T01:41:21;30.67;;;23.80;;
7737;SDS011;29398;45.328;5.558;2023-12-22T01:42:22;29.73;;;22.25;;
7737;SDS011;29398;45.328;5.558;2023-12-22T01:43:24;33.90;;;24.63;;
7737;SDS011;29398;45.328;5.558;2023-12-22T01:44:26;34.72;;;24.17;;
7737;SDS011;29398;45.328;5.558;2023-12-22T01:45:28;36.70;;;26.25;;
7737;SDS011;29398;45.328;5.558;2023-12-22T01:46:29;30.52;;;24.35;;
7737;SDS011;29398;45.328;5.558;2023-12-22T01:47:31;30.55;;;22.98;;
7737;SDS011;29398;45.328;5.558;2023-12-22T01:48:33;27.27;;;22.85;;
7737;SDS011;29398;45.328;5.558;2023-12-22T01:49:36;31.17;;;23.55;;
7737;SDS011;29398;45.328;5.558;2023-12-22T01:50:37;33.53;;;26.08;;
7737;SDS011;29398;45.328;5.558;2023-12-22T01:51:39;34.03;;;26.25;;
7737;SDS011;29398;45.328;5.558;2023-12-22T01:52:42;36.30;;;26.13;;
7737;SDS011;29398;45.328;5.558;2023-12-22T01:53:44;38.38;;;25.65;;
7737;SDS011;29398;45.328;5.558;2023-12-22T01:54:47;37.65;;;24.10;;
7737;SDS011;29398;45.328;5.558;2023-12-22T01:55:51;40.05;;;24.65;;
7737;SDS011;29398;45.328;5.558;2023-12-22T01:56:55;39.53;;;26.33;;
7737;SDS011;29398;45.328;5.558;2023-12-22T01:57:56;39.58;;;27.02;;
7737;SDS011;29398;45.328;5.558;2023-12-22T01:58:59;36.30;;;26.02;;
7737;SDS011;29398;45.328;5.558;2023-12-22T02:00:02;31.45;;;24.73;;
7737;SDS011;29398;45.328;5.558;2023-12-22T02:01:12;31.23;;;24.88;;
7737;SDS011;29398;45.328;5.558;2023-12-22T02:02:14;35.05;;;25.13;;
7737;SDS011;29398;45.328;5.558;2023-12-22T02:03:15;34.92;;;26.40;;
7737;SDS011;29398;45.328;5.558;2023-12-22T02:04:18;43.60;;;29.90;;
7737;SDS011;29398;45.328;5.558;2023-12-22T02:05:20;35.63;;;26.13;;
7737;SDS011;29398;45.328;5.558;2023-12-22T02:06:21;39.20;;;28.35;;
7737;SDS011;29398;45.328;5.558;2023-12-22T02:07:24;33.03;;;24.33;;
7737;SDS011;29398;45.328;5.558;2023-12-22T02:08:25;40.22;;;27.00;;
7737;SDS011;29398;45.328;5.558;2023-12-22T02:09:29;33.58;;;26.02;;
7737;SDS011;29398;45.328;5.558;2023-12-22T02:10:31;34.85;;;25.95;;
7737;SDS011;29398;45.328;5.558;2023-12-22T02:11:34;30.02;;;22.95;;
7737;SDS011;29398;45.328;5.558;2023-12-22T02:12:35;36.08;;;26.27;;
7737;SDS011;29398;45.328;5.558;2023-12-22T02:13:36;34.97;;;24.95;;
7737;SDS011;29398;45.328;5.558;2023-12-22T02:14:39;36.75;;;24.85;;
7737;SDS011;29398;45.328;5.558;2023-12-22T02:15:40;36.05;;;25.98;;
7737;SDS011;29398;45.328;5.558;2023-12-22T02:16:42;31.30;;;23.85;;
7737;SDS011;29398;45.328;5.558;2023-12-22T02:17:48;42.00;;;27.33;;
7737;SDS011;29398;45.328;5.558;2023-12-22T02:18:56;37.67;;;23.52;;
7737;SDS011;29398;45.328;5.558;2023-12-22T02:19:59;42.72;;;24.95;;
7737;SDS011;29398;45.328;5.558;2023-12-22T02:21:04;39.78;;;24.65;;
7737;SDS011;29398;45.328;5.558;2023-12-22T02:22:06;34.28;;;23.17;;
7737;SDS011;29398;45.328;5.558;2023-12-22T02:23:10;33.67;;;23.38;;
7737;SDS011;29398;45.328;5.558;2023-12-22T02:24:11;35.33;;;24.10;;
7737;SDS011;29398;45.328;5.558;2023-12-22T02:25:13;31.65;;;23.45;;
7737;SDS011;29398;45.328;5.558;2023-12-22T02:26:16;36.80;;;23.95;;
7737;SDS011;29398;45.328;5.558;2023-12-22T02:27:25;38.55;;;22.42;;
7737;SDS011;29398;45.328;5.558;2023-12-22T02:28:31;29.13;;;22.00;;
7737;SDS011;29398;45.328;5.558;2023-12-22T02:29:36;28.30;;;20.83;;
7737;SDS011;29398;45.328;5.558;2023-12-22T02:30:47;39.33;;;22.43;;
7737;SDS011;29398;45.328;5.558;2023-12-22T02:31:56;35.80;;;22.40;;
7737;SDS011;29398;45.328;5.558;2023-12-22T02:32:59;47.88;;;22.98;;
7737;SDS011;29398;45.328;5.558;2023-12-22T02:34:04;28.50;;;20.45;;
7737;SDS011;29398;45.328;5.558;2023-12-22T02:35:15;29.10;;;18.63;;
7737;SDS011;29398;45.328;5.558;2023-12-22T02:36:39;26.58;;;18.05;;
7737;SDS011;29398;45.328;5.558;2023-12-22T02:37:41;34.42;;;20.92;;
7737;SDS011;29398;45.328;5.558;2023-12-22T02:38:44;34.25;;;20.63;;
7737;SDS011;29398;45.328;5.558;2023-12-22T02:39:46;23.77;;;17.83;;
7737;SDS011;29398;45.328;5.558;2023-12-22T02:40:47;36.80;;;20.40;;
7737;SDS011;29398;45.328;5.558;2023-12-22T02:41:50;25.10;;;17.98;;
7737;SDS011;29398;45.328;5.558;2023-12-22T02:42:52;23.98;;;17.95;;
7737;SDS011;29398;45.328;5.558;2023-12-22T02:43:54;29.60;;;19.55;;
7737;SDS011;29398;45.328;5.558;2023-12-22T02:44:56;39.10;;;20.33;;
7737;SDS011;29398;45.328;5.558;2023-12-22T02:45:58;25.27;;;18.08;;
7737;SDS011;29398;45.328;5.558;2023-12-22T02:47:00;24.20;;;17.33;;
7737;SDS011;29398;45.328;5.558;2023-12-22T02:48:01;22.17;;;16.67;;
7737;SDS011;29398;45.328;5.558;2023-12-22T02:49:03;23.63;;;17.00;;
7737;SDS011;29398;45.328;5.558;2023-12-22T02:50:04;23.85;;;16.65;;
7737;SDS011;29398;45.328;5.558;2023-12-22T02:51:06;25.70;;;18.63;;
7737;SDS011;29398;45.328;5.558;2023-12-22T02:52:08;32.97;;;18.40;;
7737;SDS011;29398;45.328;5.558;2023-12-22T02:53:09;26.52;;;18.05;;
7737;SDS011;29398;45.328;5.558;2023-12-22T02:54:12;30.65;;;19.70;;
7737;SDS011;29398;45.328;5.558;2023-12-22T02:55:13;31.67;;;20.13;;
7737;SDS011;29398;45.328;5.558;2023-12-22T02:56:16;23.92;;;18.15;;
7737;SDS011;29398;45.328;5.558;2023-12-22T02:57:17;27.42;;;18.92;;
7737;SDS011;29398;45.328;5.558;2023-12-22T02:58:19;29.95;;;18.80;;
7737;SDS011;29398;45.328;5.558;2023-12-22T02:59:20;22.05;;;17.50;;
7737;SDS011;29398;45.328;5.558;2023-12-22T03:00:21;27.48;;;18.48;;
7737;SDS011;29398;45.328;5.558;2023-12-22T03:01:23;32.55;;;19.90;;
7737;SDS011;29398;45.328;5.558;2023-12-22T03:02:24;30.73;;;18.13;;
7737;SDS011;29398;45.328;5.558;2023-12-22T03:03:27;22.88;;;17.27;;
7737;SDS011;29398;45.328;5.558;2023-12-22T03:04:28;30.05;;;20.70;;
7737;SDS011;29398;45.328;5.558;2023-12-22T03:05:30;28.60;;;20.42;;
7737;SDS011;29398;45.328;5.558;2023-12-22T03:06:31;31.15;;;21.17;;
7737;SDS011;29398;45.328;5.558;2023-12-22T03:07:32;30.70;;;20.95;;
7737;SDS011;29398;45.328;5.558;2023-12-22T03:08:34;41.70;;;22.33;;
7737;SDS011;29398;45.328;5.558;2023-12-22T03:09:36;33.85;;;21.88;;
7737;SDS011;29398;45.328;5.558;2023-12-22T03:10:37;32.15;;;20.90;;
7737;SDS011;29398;45.328;5.558;2023-12-22T03:11:39;34.67;;;22.90;;
7737;SDS011;29398;45.328;5.558;2023-12-22T03:12:40;30.00;;;21.75;;
7737;SDS011;29398;45.328;5.558;2023-12-22T03:13:43;34.42;;;24.05;;
7737;SDS011;29398;45.328;5.558;2023-12-22T03:14:44;41.13;;;25.58;;
7737;SDS011;29398;45.328;5.558;2023-12-22T03:15:45;32.92;;;22.98;;
7737;SDS011;29398;45.328;5.558;2023-12-22T03:16:47;30.40;;;22.35;;
7737;SDS011;29398;45.328;5.558;2023-12-22T03:17:48;34.03;;;22.80;;
7737;SDS011;29398;45.328;5.558;2023-12-22T03:18:50;46.33;;;27.42;;
7737;SDS011;29398;45.328;5.558;2023-12-22T03:19:52;52.33;;;26.20;;
7737;SDS011;29398;45.328;5.558;2023-12-22T03:20:54;33.67;;;23.90;;
7737;SDS011;29398;45.328;5.558;2023-12-22T03:21:55;44.47;;;25.88;;
7737;SDS011;29398;45.328;5.558;2023-12-22T03:22:57;47.45;;;24.60;;
7737;SDS011;29398;45.328;5.558;2023-12-22T03:23:58;40.08;;;24.20;;
7737;SDS011;29398;45.328;5.558;2023-12-22T03:25:02;38.97;;;23.40;;
7737;SDS011;29398;45.328;5.558;2023-12-22T03:26:03;33.20;;;24.30;;
7737;SDS011;29398;45.328;5.558;2023-12-22T03:27:05;33.15;;;23.25;;
7737;SDS011;29398;45.328;5.558;2023-12-22T03:28:07;39.22;;;23.38;;
7737;SDS011;29398;45.328;5.558;2023-12-22T03:29:09;41.22;;;25.67;;
7737;SDS011;29398;45.328;5.558;2023-12-22T03:30:10;37.05;;;22.98;;
7737;SDS011;29398;45.328;5.558;2023-12-22T03:31:13;41.17;;;24.48;;
7737;SDS011;29398;45.328;5.558;2023-12-22T03:32:14;45.60;;;24.98;;
7737;SDS011;29398;45.328;5.558;2023-12-22T03:33:16;58.00;;;26.08;;
7737;SDS011;29398;45.328;5.558;2023-12-22T03:34:17;42.88;;;24.30;;
7737;SDS011;29398;45.328;5.558;2023-12-22T03:35:19;37.13;;;24.02;;
7737;SDS011;29398;45.328;5.558;2023-12-22T03:36:20;41.55;;;23.83;;
7737;SDS011;29398;45.328;5.558;2023-12-22T03:37:22;36.00;;;23.80;;
7737;SDS011;29398;45.328;5.558;2023-12-22T03:38:23;41.80;;;24.33;;
7737;SDS011;29398;45.328;5.558;2023-12-22T03:40:46;33.30;;;22.65;;
7737;SDS011;29398;45.328;5.558;2023-12-22T03:41:48;33.75;;;22.88;;
7737;SDS011;29398;45.328;5.558;2023-12-22T03:42:49;34.20;;;23.02;;
7737;SDS011;29398;45.328;5.558;2023-12-22T03:43:51;33.45;;;22.65;;
7737;SDS011;29398;45.328;5.558;2023-12-22T03:44:52;58.50;;;24.98;;
7737;SDS011;29398;45.328;5.558;2023-12-22T03:45:54;39.38;;;21.73;;
7737;SDS011;29398;45.328;5.558;2023-12-22T03:46:56;35.63;;;22.02;;
7737;SDS011;29398;45.328;5.558;2023-12-22T03:47:58;54.58;;;24.45;;
7737;SDS011;29398;45.328;5.558;2023-12-22T03:48:59;37.45;;;22.90;;
7737;SDS011;29398;45.328;5.558;2023-12-22T03:50:00;36.08;;;21.50;;
7737;SDS011;29398;45.328;5.558;2023-12-22T03:51:02;33.78;;;20.85;;
7737;SDS011;29398;45.328;5.558;2023-12-22T03:52:03;27.77;;;20.02;;
7737;SDS011;29398;45.328;5.558;2023-12-22T03:53:05;36.00;;;22.45;;
7737;SDS011;29398;45.328;5.558;2023-12-22T03:54:06;33.88;;;22.48;;
7737;SDS011;29398;45.328;5.558;2023-12-22T03:55:09;27.83;;;20.67;;
7737;SDS011;29398;45.328;5.558;2023-12-22T03:56:11;28.33;;;18.17;;
7737;SDS011;29398;45.328;5.558;2023-12-22T03:57:12;29.70;;;21.40;;
7737;SDS011;29398;45.328;5.558;2023-12-22T03:58:14;34.80;;;21.45;;
7737;SDS011;29398;45.328;5.558;2023-12-22T03:59:15;44.10;;;24.98;;
7737;SDS011;29398;45.328;5.558;2023-12-22T04:00:19;41.90;;;26.45;;
7737;SDS011;29398;45.328;5.558;2023-12-22T04:01:21;87.63;;;28.77;;
7737;SDS011;29398;45.328;5.558;2023-12-22T04:02:22;67.22;;;28.30;;
7737;SDS011;29398;45.328;5.558;2023-12-22T04:03:24;177.15;;;31.95;;
7737;SDS011;29398;45.328;5.558;2023-12-22T04:04:25;96.82;;;30.20;;
7737;SDS011;29398;45.328;5.558;2023-12-22T04:05:28;95.90;;;29.88;;
7737;SDS011;29398;45.328;5.558;2023-12-22T04:06:30;49.17;;;24.48;;
7737;SDS011;29398;45.328;5.558;2023-12-22T04:07:31;46.88;;;24.90;;
7737;SDS011;29398;45.328;5.558;2023-12-22T04:08:32;45.50;;;24.52;;
7737;SDS011;29398;45.328;5.558;2023-12-22T04:09:36;30.90;;;22.25;;
7737;SDS011;29398;45.328;5.558;2023-12-22T04:10:37;38.72;;;23.98;;
7737;SDS011;29398;45.328;5.558;2023-12-22T04:12:00;60.47;;;25.17;;
7737;SDS011;29398;45.328;5.558;2023-12-22T04:13:01;39.17;;;24.27;;
7737;SDS011;29398;45.328;5.558;2023-12-22T04:14:03;56.63;;;26.13;;
7737;SDS011;29398;45.328;5.558;2023-12-22T04:15:05;33.83;;;22.67;;
7737;SDS011;29398;45.328;5.558;2023-12-22T04:16:08;30.15;;;21.52;;
7737;SDS011;29398;45.328;5.558;2023-12-22T04:17:10;31.02;;;22.52;;
7737;SDS011;29398;45.328;5.558;2023-12-22T04:18:12;32.50;;;22.08;;
7737;SDS011;29398;45.328;5.558;2023-12-22T04:19:13;34.83;;;22.27;;
7737;SDS011;29398;45.328;5.558;2023-12-22T04:20:15;30.55;;;22.17;;
7737;SDS011;29398;45.328;5.558;2023-12-22T04:21:16;32.75;;;22.45;;
7737;SDS011;29398;45.328;5.558;2023-12-22T04:22:18;33.65;;;23.05;;
7737;SDS011;29398;45.328;5.558;2023-12-22T04:23:19;39.80;;;22.98;;
7737;SDS011;29398;45.328;5.558;2023-12-22T04:24:21;47.08;;;24.23;;
7737;SDS011;29398;45.328;5.558;2023-12-22T04:25:22;45.65;;;23.77;;
7737;SDS011;29398;45.328;5.558;2023-12-22T04:26:25;32.38;;;23.02;;
7737;SDS011;29398;45.328;5.558;2023-12-22T04:27:27;31.85;;;24.40;;
7737;SDS011;29398;45.328;5.558;2023-12-22T04:28:28;47.42;;;25.77;;
7737;SDS011;29398;45.328;5.558;2023-12-22T04:29:30;31.65;;;22.25;;
7737;SDS011;29398;45.328;5.558;2023-12-22T04:30:32;33.53;;;23.17;;
7737;SDS011;29398;45.328;5.558;2023-12-22T04:31:34;32.45;;;22.30;;
7737;SDS011;29398;45.328;5.558;2023-12-22T04:32:35;32.97;;;22.42;;
7737;SDS011;29398;45.328;5.558;2023-12-22T04:33:37;35.63;;;22.77;;
7737;SDS011;29398;45.328;5.558;2023-12-22T04:34:38;32.88;;;23.08;;
7737;SDS011;29398;45.328;5.558;2023-12-22T04:35:40;38.65;;;23.85;;
7737;SDS011;29398;45.328;5.558;2023-12-22T04:36:41;30.13;;;21.05;;
7737;SDS011;29398;45.328;5.558;2023-12-22T04:37:44;35.45;;;21.27;;
7737;SDS011;29398;45.328;5.558;2023-12-22T04:38:45;28.67;;;20.58;;
7737;SDS011;29398;45.328;5.558;2023-12-22T04:39:47;33.25;;;21.17;;
7737;SDS011;29398;45.328;5.558;2023-12-22T04:40:48;29.48;;;20.55;;
7737;SDS011;29398;45.328;5.558;2023-12-22T04:41:50;30.90;;;20.88;;
7737;SDS011;29398;45.328;5.558;2023-12-22T04:42:52;28.40;;;19.35;;
7737;SDS011;29398;45.328;5.558;2023-12-22T04:43:55;29.00;;;19.33;;
7737;SDS011;29398;45.328;5.558;2023-12-22T04:44:56;33.53;;;20.40;;
7737;SDS011;29398;45.328;5.558;2023-12-22T04:45:58;23.60;;;17.58;;
7737;SDS011;29398;45.328;5.558;2023-12-22T04:46:59;21.42;;;15.63;;
7737;SDS011;29398;45.328;5.558;2023-12-22T04:48:00;25.70;;;17.08;;
7737;SDS011;29398;45.328;5.558;2023-12-22T04:49:03;23.27;;;17.15;;
7737;SDS011;29398;45.328;5.558;2023-12-22T04:50:04;22.08;;;15.70;;
7737;SDS011;29398;45.328;5.558;2023-12-22T04:51:06;18.83;;;14.63;;
7737;SDS011;29398;45.328;5.558;2023-12-22T04:52:07;18.00;;;13.40;;
7737;SDS011;29398;45.328;5.558;2023-12-22T04:53:10;20.17;;;13.63;;
7737;SDS011;29398;45.328;5.558;2023-12-22T04:54:11;19.00;;;12.63;;
7737;SDS011;29398;45.328;5.558;2023-12-22T04:55:13;21.10;;;13.95;;
7737;SDS011;29398;45.328;5.558;2023-12-22T04:56:15;22.20;;;13.85;;
7737;SDS011;29398;45.328;5.558;2023-12-22T04:57:17;18.10;;;12.73;;
7737;SDS011;29398;45.328;5.558;2023-12-22T04:58:20;20.83;;;13.13;;
7737;SDS011;29398;45.328;5.558;2023-12-22T04:59:22;23.70;;;12.95;;
7737;SDS011;29398;45.328;5.558;2023-12-22T05:00:23;21.23;;;12.90;;
7737;SDS011;29398;45.328;5.558;2023-12-22T05:01:26;14.15;;;10.88;;
7737;SDS011;29398;45.328;5.558;2023-12-22T05:02:27;17.38;;;12.05;;
7737;SDS011;29398;45.328;5.558;2023-12-22T05:03:29;15.15;;;11.20;;
7737;SDS011;29398;45.328;5.558;2023-12-22T05:04:31;21.65;;;13.35;;
7737;SDS011;29398;45.328;5.558;2023-12-22T05:05:32;21.25;;;12.45;;
7737;SDS011;29398;45.328;5.558;2023-12-22T05:06:34;31.05;;;13.02;;
7737;SDS011;29398;45.328;5.558;2023-12-22T05:07:35;15.32;;;10.68;;
7737;SDS011;29398;45.328;5.558;2023-12-22T05:08:56;13.95;;;10.98;;
7737;SDS011;29398;45.328;5.558;2023-12-22T05:09:57;15.18;;;11.35;;
7737;SDS011;29398;45.328;5.558;2023-12-22T05:10:59;15.55;;;12.60;;
7737;SDS011;29398;45.328;5.558;2023-12-22T05:12:00;22.55;;;12.48;;
7737;SDS011;29398;45.328;5.558;2023-12-22T05:13:02;23.17;;;12.35;;
7737;SDS011;29398;45.328;5.558;2023-12-22T05:14:05;21.75;;;11.82;;
7737;SDS011;29398;45.328;5.558;2023-12-22T05:15:07;19.90;;;12.27;;
7737;SDS011;29398;45.328;5.558;2023-12-22T05:16:09;22.20;;;13.27;;
7737;SDS011;29398;45.328;5.558;2023-12-22T05:17:11;26.20;;;14.05;;
7737;SDS011;29398;45.328;5.558;2023-12-22T05:18:12;16.98;;;11.95;;
7737;SDS011;29398;45.328;5.558;2023-12-22T05:19:14;26.30;;;14.13;;
7737;SDS011;29398;45.328;5.558;2023-12-22T05:20:16;25.23;;;13.18;;
7737;SDS011;29398;45.328;5.558;2023-12-22T05:21:17;21.90;;;13.45;;
7737;SDS011;29398;45.328;5.558;2023-12-22T05:22:19;19.30;;;14.50;;
7737;SDS011;29398;45.328;5.558;2023-12-22T05:23:20;24.88;;;16.90;;
7737;SDS011;29398;45.328;5.558;2023-12-22T05:24:23;23.60;;;15.85;;
7737;SDS011;29398;45.328;5.558;2023-12-22T05:25:24;40.08;;;16.02;;
7737;SDS011;29398;45.328;5.558;2023-12-22T05:26:26;23.38;;;15.15;;
7737;SDS011;29398;45.328;5.558;2023-12-22T05:27:30;27.48;;;16.13;;
7737;SDS011;29398;45.328;5.558;2023-12-22T05:28:32;24.08;;;18.15;;
7737;SDS011;29398;45.328;5.558;2023-12-22T05:29:35;34.47;;;19.02;;
7737;SDS011;29398;45.328;5.558;2023-12-22T05:30:38;39.08;;;19.67;;
7737;SDS011;29398;45.328;5.558;2023-12-22T05:31:39;37.35;;;19.80;;
7737;SDS011;29398;45.328;5.558;2023-12-22T05:32:40;31.50;;;21.20;;
7737;SDS011;29398;45.328;5.558;2023-12-22T05:33:42;30.10;;;19.17;;
7737;SDS011;29398;45.328;5.558;2023-12-22T05:34:44;35.03;;;21.75;;
7737;SDS011;29398;45.328;5.558;2023-12-22T05:35:46;38.03;;;22.58;;
7737;SDS011;29398;45.328;5.558;2023-12-22T05:36:47;48.03;;;23.75;;
7737;SDS011;29398;45.328;5.558;2023-12-22T05:37:49;33.88;;;22.77;;
7737;SDS011;29398;45.328;5.558;2023-12-22T05:38:50;35.67;;;22.77;;
7737;SDS011;29398;45.328;5.558;2023-12-22T05:39:52;37.38;;;21.88;;
7737;SDS011;29398;45.328;5.558;2023-12-22T05:40:53;31.65;;;21.05;;
7737;SDS011;29398;45.328;5.558;2023-12-22T05:41:54;28.95;;;20.25;;
7737;SDS011;29398;45.328;5.558;2023-12-22T05:42:57;26.23;;;18.98;;
7737;SDS011;29398;45.328;5.558;2023-12-22T05:43:58;25.42;;;18.75;;
7737;SDS011;29398;45.328;5.558;2023-12-22T05:45:01;27.50;;;18.15;;
7737;SDS011;29398;45.328;5.558;2023-12-22T05:46:02;30.80;;;21.02;;
7737;SDS011;29398;45.328;5.558;2023-12-22T05:47:05;28.23;;;19.63;;
7737;SDS011;29398;45.328;5.558;2023-12-22T05:48:06;32.83;;;20.77;;
7737;SDS011;29398;45.328;5.558;2023-12-22T05:49:08;26.05;;;20.05;;
7737;SDS011;29398;45.328;5.558;2023-12-22T05:50:10;29.90;;;21.52;;
7737;SDS011;29398;45.328;5.558;2023-12-22T05:51:12;24.65;;;19.20;;
7737;SDS011;29398;45.328;5.558;2023-12-22T05:52:13;31.23;;;21.42;;
7737;SDS011;29398;45.328;5.558;2023-12-22T05:53:16;36.70;;;21.65;;
7737;SDS011;29398;45.328;5.558;2023-12-22T05:54:17;28.35;;;20.85;;
7737;SDS011;29398;45.328;5.558;2023-12-22T05:55:19;22.58;;;16.80;;
7737;SDS011;29398;45.328;5.558;2023-12-22T05:56:21;25.98;;;16.77;;
7737;SDS011;29398;45.328;5.558;2023-12-22T05:57:22;24.55;;;15.98;;
7737;SDS011;29398;45.328;5.558;2023-12-22T05:58:26;19.17;;;14.75;;
7737;SDS011;29398;45.328;5.558;2023-12-22T05:59:27;19.25;;;14.75;;
7737;SDS011;29398;45.328;5.558;2023-12-22T06:00:33;19.35;;;14.00;;
7737;SDS011;29398;45.328;5.558;2023-12-22T06:01:35;15.32;;;13.73;;
7737;SDS011;29398;45.328;5.558;2023-12-22T06:02:37;18.50;;;13.40;;
7737;SDS011;29398;45.328;5.558;2023-12-22T06:03:38;18.27;;;12.98;;
7737;SDS011;29398;45.328;5.558;2023-12-22T06:04:40;18.95;;;12.63;;
7737;SDS011;29398;45.328;5.558;2023-12-22T06:05:42;17.83;;;12.57;;
7737;SDS011;29398;45.328;5.558;2023-12-22T06:06:43;16.30;;;11.50;;
7737;SDS011;29398;45.328;5.558;2023-12-22T06:07:46;16.27;;;11.60;;
7737;SDS011;29398;45.328;5.558;2023-12-22T06:08:47;20.63;;;12.50;;
7737;SDS011;29398;45.328;5.558;2023-12-22T06:09:49;13.90;;;11.85;;